createdAt,value
2023-03-01T00:01:51.834Z,89.74
2023-03-01T00:04:20.221Z,89.14
2023-03-01T00:06:49.720Z,89.20
2023-03-01T00:09:18.533Z,92.17
2023-03-01T00:11:47.274Z,91.10
2023-03-01T00:14:18.600Z,92.60
2023-03-01T00:16:47.945Z,92.29
2023-03-01T00:19:17.852Z,92.07
2023-03-01T00:21:46.578Z,91.97
2023-03-01T00:24:14.949Z,92.44
2023-03-01T00:26:43.576Z,92.42
2023-03-01T00:29:12.513Z,91.95
2023-03-01T00:31:42.152Z,92.36
2023-03-01T00:34:11.934Z,92.37
2023-03-01T00:36:40.478Z,91.08
2023-03-01T00:39:15.089Z,91.97
2023-03-01T00:41:44.112Z,89.86
2023-03-01T00:44:13.199Z,90.18
2023-03-01T00:46:43.526Z,91.85
2023-03-01T00:49:11.841Z,90.66
2023-03-01T00:51:43.006Z,91.05
2023-03-01T00:54:13.753Z,90.33
2023-03-01T00:56:42.064Z,88.51
2023-03-01T00:59:10.548Z,87.79
2023-03-01T01:01:39.175Z,89.13
2023-03-01T01:04:10.909Z,88.25
2023-03-01T01:06:43.555Z,88.85
2023-03-01T01:09:18.439Z,87.61
2023-03-01T01:11:50.688Z,87.26
2023-03-01T01:14:20.365Z,87.05
2023-03-01T01:16:48.770Z,86.84
2023-03-01T01:19:18.803Z,86.67
2023-03-01T01:21:47.385Z,86.58
2023-03-01T01:24:16.802Z,86.30
2023-03-01T01:26:45.779Z,87.61
2023-03-01T01:29:14.352Z,88.07
2023-03-01T01:31:44.563Z,87.46
2023-03-01T01:34:18.994Z,87.54
2023-03-01T01:36:51.891Z,87.37
2023-03-01T01:39:20.801Z,87.45
2023-03-01T01:41:49.791Z,87.67
2023-03-01T01:44:21.259Z,89.94
2023-03-01T01:46:53.111Z,87.96
2023-03-01T01:49:31.193Z,89.44
2023-03-01T01:52:08.172Z,89.36
2023-03-01T01:54:44.147Z,88.45
2023-03-01T01:57:17.541Z,89.09
2023-03-01T01:59:51.153Z,89.19
2023-03-01T02:02:20.554Z,89.57
2023-03-01T02:04:52.108Z,90.37
2023-03-01T02:07:23.844Z,90.85
2023-03-01T02:09:55.209Z,91.77
2023-03-01T02:12:26.943Z,92.31
2023-03-01T02:14:55.325Z,91.46
2023-03-01T02:17:24.219Z,92.40
2023-03-01T02:20:08.771Z,92.03
2023-03-01T02:22:39.818Z,93.28
2023-03-01T02:25:20.136Z,93.77
2023-03-01T02:28:01.193Z,93.54
2023-03-01T02:30:32.256Z,93.65
2023-03-01T02:33:04.016Z,94.04
2023-03-01T02:35:36.604Z,94.93
2023-03-01T02:38:08.894Z,97.86
2023-03-01T02:40:40.491Z,98.30
2023-03-01T02:43:13.364Z,99.42
2023-03-01T02:45:52.156Z,100.00
2023-03-01T02:48:20.808Z,100.00
2023-03-01T02:51:07.216Z,100.00
2023-03-01T02:53:43.866Z,100.00
2023-03-01T02:56:14.290Z,100.00
2023-03-01T02:58:46.980Z,100.00
2023-03-01T03:01:17.431Z,100.00
2023-03-01T03:03:49.150Z,100.00
2023-03-01T03:06:17.552Z,100.00
2023-03-01T03:08:45.820Z,100.00
2023-03-01T03:11:14.630Z,100.00
2023-03-01T03:13:49.379Z,100.00
2023-03-01T03:16:19.465Z,100.00
2023-03-01T03:18:48.122Z,100.00
2023-03-01T03:21:17.409Z,100.00
2023-03-01T03:23:46.524Z,100.00
2023-03-01T03:26:16.305Z,100.00
2023-03-01T03:28:46.181Z,100.00
2023-03-01T03:31:14.646Z,100.00
2023-03-01T03:33:45.145Z,99.94
2023-03-01T03:36:18.860Z,99.68
2023-03-01T03:38:47.936Z,100.00
2023-03-01T03:41:16.543Z,100.00
2023-03-01T03:43:46.134Z,100.00
2023-03-01T03:46:15.247Z,99.76
2023-03-01T03:48:46.812Z,97.41
2023-03-01T03:51:17.326Z,96.34
2023-03-01T03:53:46.459Z,94.58
2023-03-01T03:56:15.054Z,94.00
2023-03-01T03:58:43.463Z,93.77
2023-03-01T04:01:12.052Z,93.63
2023-03-01T04:03:42.824Z,93.17
2023-03-01T04:06:12.870Z,93.63
2023-03-01T04:08:42.008Z,95.06
2023-03-01T04:11:29.830Z,94.70
2023-03-01T04:14:01.259Z,96.03
2023-03-01T04:16:30.370Z,96.95
2023-03-01T04:19:02.667Z,97.84
2023-03-01T04:21:32.814Z,97.24
2023-03-01T04:24:01.126Z,98.15
2023-03-01T04:26:29.847Z,98.74
2023-03-01T04:28:58.782Z,98.27
2023-03-01T04:31:27.169Z,97.77
2023-03-01T04:33:58.117Z,96.74
2023-03-01T04:36:28.999Z,96.00
2023-03-01T04:38:59.258Z,97.04
2023-03-01T04:41:28.170Z,96.03
2023-03-01T04:43:56.603Z,95.19
2023-03-01T04:46:25.299Z,95.34
2023-03-01T04:48:53.606Z,96.55
2023-03-01T04:51:22.013Z,97.57
2023-03-01T04:53:50.390Z,98.24
2023-03-01T04:56:20.404Z,99.47
2023-03-01T04:58:49.402Z,100.00
2023-03-01T05:01:20.101Z,98.81
2023-03-01T05:03:50.783Z,100.00
2023-03-01T05:06:20.625Z,100.00
2023-03-01T05:08:49.280Z,100.00
2023-03-01T05:11:20.852Z,100.00
2023-03-01T05:13:51.132Z,100.00
2023-03-01T05:16:21.143Z,100.00
2023-03-01T05:18:51.675Z,99.90
2023-03-01T05:21:20.790Z,99.81
2023-03-01T05:23:50.864Z,100.00
2023-03-01T05:26:28.833Z,100.00
2023-03-01T05:29:00.513Z,100.00
2023-03-01T05:31:29.633Z,99.30
2023-03-01T05:33:57.756Z,99.69
2023-03-01T05:36:26.682Z,100.00
2023-03-01T05:38:54.857Z,100.00
2023-03-01T05:41:23.292Z,100.00
2023-03-01T05:43:51.535Z,100.00
2023-03-01T05:46:21.313Z,100.00
2023-03-01T05:48:49.928Z,100.00
2023-03-01T05:51:19.817Z,100.00
2023-03-01T05:53:48.428Z,99.85
2023-03-01T05:56:16.676Z,100.00
2023-03-01T05:58:44.990Z,100.00
2023-03-01T06:01:14.906Z,100.00
2023-03-01T06:03:45.029Z,100.00
2023-03-01T06:06:13.825Z,100.00
2023-03-01T06:08:42.721Z,100.00
2023-03-01T06:11:10.900Z,100.00
2023-03-01T06:13:39.411Z,100.00
2023-03-01T06:16:09.540Z,100.00
2023-03-01T06:18:38.439Z,100.00
2023-03-01T06:21:09.702Z,100.00
2023-03-01T06:23:38.252Z,100.00
2023-03-01T06:26:09.830Z,100.00
2023-03-01T06:28:38.829Z,100.00
2023-03-01T06:31:09.961Z,100.00
2023-03-01T06:33:38.575Z,100.00
2023-03-01T06:36:10.624Z,99.62
2023-03-01T06:38:39.413Z,99.90
2023-03-01T06:41:07.990Z,100.00
2023-03-01T06:43:36.998Z,99.31
2023-03-01T06:46:08.018Z,99.18
2023-03-01T06:48:36.980Z,98.98
2023-03-01T06:51:06.047Z,98.62
2023-03-01T06:53:36.575Z,98.03
2023-03-01T06:56:05.375Z,97.60
2023-03-01T06:58:33.863Z,95.05
2023-03-01T07:01:04.894Z,93.95
2023-03-01T07:03:34.440Z,92.58
2023-03-01T07:06:03.010Z,92.53
2023-03-01T07:08:31.988Z,90.89
2023-03-01T07:11:05.192Z,92.50
2023-03-01T07:13:34.188Z,89.01
2023-03-01T07:16:03.119Z,87.04
2023-03-01T07:18:31.805Z,86.50
2023-03-01T07:21:00.922Z,86.94
2023-03-01T07:23:29.757Z,85.77
2023-03-01T07:25:58.675Z,85.51
2023-03-01T07:28:28.848Z,83.20
2023-03-01T07:30:57.939Z,83.31
2023-03-01T07:33:29.103Z,82.15
2023-03-01T07:36:00.978Z,82.34
2023-03-01T07:38:30.371Z,81.42
2023-03-01T07:41:01.748Z,81.56
2023-03-01T07:43:32.004Z,80.02
2023-03-01T07:46:02.195Z,80.05
2023-03-01T07:48:32.323Z,78.74
2023-03-01T07:51:02.772Z,79.20
2023-03-01T07:53:32.809Z,77.12
2023-03-01T07:56:06.585Z,76.03
2023-03-01T07:58:40.716Z,75.76
2023-03-01T08:01:14.405Z,75.64
2023-03-01T08:03:44.833Z,75.33
2023-03-01T08:06:15.175Z,74.10
2023-03-01T08:08:43.764Z,72.96
2023-03-01T08:11:13.561Z,72.95
2023-03-01T08:13:43.986Z,71.46
2023-03-01T08:16:15.591Z,71.41
2023-03-01T08:18:46.721Z,71.39
2023-03-01T08:21:17.628Z,70.09
2023-03-01T08:23:46.425Z,69.88
2023-03-01T08:26:17.862Z,69.05
2023-03-01T08:28:49.536Z,67.16
2023-03-01T08:31:20.255Z,66.59
2023-03-01T08:33:52.659Z,65.70
2023-03-01T08:36:23.075Z,64.31
2023-03-01T08:38:52.062Z,65.91
2023-03-01T08:41:20.893Z,64.44
2023-03-01T08:43:51.587Z,62.05
2023-03-01T08:46:20.520Z,60.82
2023-03-01T08:48:49.935Z,61.17
2023-03-01T08:51:20.047Z,60.16
2023-03-01T08:53:49.353Z,60.70
2023-03-01T08:56:19.457Z,60.19
2023-03-01T08:58:48.845Z,60.87
2023-03-01T09:01:21.040Z,59.27
2023-03-01T09:03:50.075Z,59.64
2023-03-01T09:06:19.449Z,58.44
2023-03-01T09:08:49.568Z,59.13
2023-03-01T09:11:20.309Z,58.91
2023-03-01T09:13:50.627Z,57.23
2023-03-01T09:16:22.420Z,56.82
2023-03-01T09:18:52.918Z,56.44
2023-03-01T09:21:38.638Z,57.09
2023-03-01T09:24:08.710Z,56.08
2023-03-01T09:26:37.358Z,55.71
2023-03-01T09:29:05.697Z,55.30
2023-03-01T09:31:35.617Z,54.94
2023-03-01T09:34:04.063Z,54.52
2023-03-01T09:36:33.338Z,54.03
2023-03-01T09:39:03.937Z,53.56
2023-03-01T09:41:51.954Z,53.36
2023-03-01T09:44:32.035Z,53.36
2023-03-01T09:47:03.068Z,53.15
2023-03-01T09:49:34.127Z,52.56
2023-03-01T09:52:15.815Z,52.84
2023-03-01T09:54:44.983Z,52.60
2023-03-01T09:57:22.368Z,51.85
2023-03-01T10:00:22.899Z,52.61
2023-03-01T10:03:01.048Z,52.09
2023-03-01T10:05:37.889Z,52.42
2023-03-01T10:08:30.732Z,51.39
2023-03-01T10:11:00.855Z,51.43
2023-03-01T10:13:36.507Z,51.06
2023-03-01T10:16:12.930Z,51.14
2023-03-01T10:18:44.847Z,51.21
2023-03-01T10:21:18.672Z,51.19
2023-03-01T10:23:47.945Z,51.15
2023-03-01T10:26:31.911Z,51.86
2023-03-01T10:29:05.416Z,51.86
2023-03-01T10:31:44.395Z,51.98
2023-03-01T10:34:17.602Z,52.08
2023-03-01T10:36:49.548Z,51.57
2023-03-01T10:39:20.737Z,50.78
2023-03-01T10:42:02.269Z,50.45
2023-03-01T10:44:46.429Z,50.53
2023-03-01T10:47:18.715Z,50.56
2023-03-01T10:50:04.364Z,50.50
2023-03-01T10:52:38.073Z,50.50
2023-03-01T10:55:27.240Z,49.22
2023-03-01T10:58:10.435Z,49.13
2023-03-01T11:00:51.266Z,49.94
2023-03-01T11:03:24.830Z,49.80
2023-03-01T11:06:03.850Z,50.14
2023-03-01T11:08:43.718Z,50.14
2023-03-01T11:11:29.036Z,48.88
2023-03-01T11:14:00.715Z,49.74
2023-03-01T11:16:35.367Z,48.64
2023-03-01T11:19:18.103Z,48.68
2023-03-01T11:22:03.924Z,48.85
2023-03-01T11:24:42.283Z,48.65
2023-03-01T11:27:20.052Z,48.36
2023-03-01T11:29:53.947Z,49.06
2023-03-01T11:32:26.248Z,48.45
2023-03-01T11:35:00.452Z,48.18
2023-03-01T11:37:38.443Z,47.79
2023-03-01T11:40:15.997Z,47.84
2023-03-01T11:43:03.004Z,47.67
2023-03-01T11:45:41.427Z,47.07
2023-03-01T11:48:43.389Z,47.48
2023-03-01T11:51:26.199Z,47.26
2023-03-01T11:54:08.729Z,46.55
2023-03-01T11:56:41.010Z,46.68
2023-03-01T11:59:48.011Z,46.68
2023-03-01T12:02:37.350Z,46.32
2023-03-01T12:05:44.897Z,45.85
2023-03-01T12:08:20.192Z,46.11
2023-03-01T12:10:59.622Z,46.29
2023-03-01T12:13:53.343Z,46.10
2023-03-01T12:16:38.891Z,45.83
2023-03-01T12:19:30.110Z,46.15
2023-03-01T12:22:09.965Z,46.25
2023-03-01T12:25:01.395Z,46.69
2023-03-01T12:27:58.329Z,46.01
2023-03-01T12:30:40.609Z,46.35
2023-03-01T12:33:20.864Z,46.67
2023-03-01T12:36:01.124Z,46.36
2023-03-01T12:38:40.148Z,45.82
2023-03-01T12:41:43.804Z,45.37
2023-03-01T12:44:26.695Z,45.52
2023-03-01T12:47:09.360Z,45.54
2023-03-01T12:49:43.018Z,46.64
2023-03-01T12:52:19.134Z,46.07
2023-03-01T12:54:48.791Z,45.90
2023-03-01T12:57:23.874Z,46.40
2023-03-01T13:00:10.852Z,46.52
2023-03-01T13:02:49.137Z,46.79
2023-03-01T13:05:31.170Z,46.79
2023-03-01T13:08:11.935Z,46.73
2023-03-01T13:10:50.742Z,46.82
2023-03-01T13:13:24.638Z,47.48
2023-03-01T13:15:55.469Z,47.83
2023-03-01T13:18:33.352Z,47.45
2023-03-01T13:21:05.027Z,46.86
2023-03-01T13:23:37.221Z,47.62
2023-03-01T13:26:15.246Z,47.53
2023-03-01T13:28:52.461Z,47.00
2023-03-01T13:32:06.197Z,47.57
2023-03-01T13:34:53.377Z,47.88
2023-03-01T13:37:31.896Z,47.72
2023-03-01T13:40:05.794Z,47.57
2023-03-01T13:42:40.911Z,47.82
2023-03-01T13:45:26.705Z,47.54
2023-03-01T13:48:04.801Z,47.44
2023-03-01T13:50:41.772Z,48.18
2023-03-01T13:53:19.001Z,48.09
2023-03-01T13:55:51.916Z,47.48
2023-03-01T13:58:26.713Z,48.20
2023-03-01T14:01:01.269Z,48.39
2023-03-01T14:03:32.262Z,47.61
2023-03-01T14:06:15.204Z,48.20
2023-03-01T14:08:46.553Z,47.63
2023-03-01T14:11:45.110Z,47.86
2023-03-01T14:14:29.573Z,48.29
2023-03-01T14:17:09.917Z,47.99
2023-03-01T14:19:38.992Z,48.28
2023-03-01T14:22:21.476Z,48.41
2023-03-01T14:24:53.076Z,48.50
2023-03-01T14:27:22.511Z,48.52
2023-03-01T14:29:58.336Z,48.32
2023-03-01T14:32:28.881Z,48.71
2023-03-01T14:34:59.005Z,48.91
2023-03-01T14:37:30.928Z,48.68
2023-03-01T14:40:01.098Z,48.36
2023-03-01T14:42:33.628Z,48.77
2023-03-01T14:45:05.384Z,48.54
2023-03-01T14:47:36.482Z,49.40
2023-03-01T14:50:11.682Z,49.48
2023-03-01T14:52:44.646Z,49.46
2023-03-01T14:55:20.354Z,49.29
2023-03-01T14:57:52.215Z,49.48
2023-03-01T15:00:23.521Z,49.98
2023-03-01T15:02:54.779Z,49.27
2023-03-01T15:05:30.328Z,49.21
2023-03-01T15:08:04.584Z,49.44
2023-03-01T15:10:35.281Z,50.46
2023-03-01T15:13:13.916Z,49.76
2023-03-01T15:15:45.130Z,50.14
2023-03-01T15:18:19.908Z,49.88
2023-03-01T15:20:50.408Z,50.50
2023-03-01T15:23:28.730Z,50.73
2023-03-01T15:25:59.406Z,50.45
2023-03-01T15:28:30.535Z,50.86
2023-03-01T15:31:03.142Z,50.68
2023-03-01T15:33:35.875Z,51.04
2023-03-01T15:36:06.739Z,50.69
2023-03-01T15:38:43.976Z,51.01
2023-03-01T15:41:26.816Z,51.37
2023-03-01T15:43:56.914Z,52.15
2023-03-01T15:46:34.006Z,52.15
2023-03-01T15:49:06.587Z,51.84
2023-03-01T15:51:38.050Z,51.86
2023-03-01T15:54:23.510Z,51.87
2023-03-01T15:56:53.434Z,52.12
2023-03-01T15:59:23.648Z,51.38
2023-03-01T16:01:52.706Z,51.61
2023-03-01T16:04:25.245Z,52.03
2023-03-01T16:06:56.679Z,52.04
2023-03-01T16:09:29.400Z,51.92
2023-03-01T16:11:58.148Z,52.21
2023-03-01T16:14:27.393Z,52.73
2023-03-01T16:16:56.501Z,53.19
2023-03-01T16:19:25.120Z,53.38
2023-03-01T16:21:53.642Z,53.52
2023-03-01T16:24:23.038Z,53.79
2023-03-01T16:26:52.729Z,53.71
2023-03-01T16:29:23.138Z,53.68
2023-03-01T16:31:51.941Z,53.89
2023-03-01T16:34:23.018Z,54.15
2023-03-01T16:36:51.155Z,54.01
2023-03-01T16:39:19.584Z,54.76
2023-03-01T16:41:48.303Z,54.28
2023-03-01T16:44:18.655Z,54.66
2023-03-01T16:46:46.942Z,55.06
2023-03-01T16:49:16.003Z,54.35
2023-03-01T16:51:45.452Z,54.82
2023-03-01T16:54:13.941Z,55.41
2023-03-01T16:56:42.762Z,55.45
2023-03-01T16:59:11.718Z,55.64
2023-03-01T17:01:42.633Z,55.75
2023-03-01T17:04:14.511Z,55.61
2023-03-01T17:06:43.519Z,55.58
2023-03-01T17:09:13.035Z,55.91
2023-03-01T17:11:41.716Z,55.86
2023-03-01T17:14:10.920Z,55.96
2023-03-01T17:16:41.169Z,56.66
2023-03-01T17:19:09.861Z,56.69
2023-03-01T17:21:39.973Z,56.56
2023-03-01T17:24:09.895Z,56.63
2023-03-01T17:26:40.612Z,56.50
2023-03-01T17:29:12.387Z,56.74
2023-03-01T17:31:43.755Z,56.89
2023-03-01T17:34:13.035Z,57.26
2023-03-01T17:36:48.470Z,57.64
2023-03-01T17:39:18.097Z,57.33
2023-03-01T17:41:46.594Z,57.58
2023-03-01T17:44:16.711Z,57.68
2023-03-01T17:46:48.063Z,58.49
2023-03-01T17:49:19.258Z,58.20
2023-03-01T17:51:49.015Z,58.72
2023-03-01T17:54:19.301Z,58.45
2023-03-01T17:56:49.011Z,59.43
2023-03-01T17:59:19.476Z,60.28
2023-03-01T18:01:52.443Z,60.62
2023-03-01T18:04:21.882Z,60.82
2023-03-01T18:06:51.703Z,60.42
2023-03-01T18:09:20.711Z,59.87
2023-03-01T18:11:49.868Z,59.79
2023-03-01T18:14:19.278Z,59.79
2023-03-01T18:16:48.537Z,59.86
2023-03-01T18:19:21.829Z,60.56
2023-03-01T18:21:51.588Z,60.93
2023-03-01T18:24:21.041Z,61.51
2023-03-01T18:26:50.749Z,61.24
2023-03-01T18:29:21.751Z,61.98
2023-03-01T18:31:50.887Z,62.45
2023-03-01T18:34:21.706Z,62.20
2023-03-01T18:37:08.016Z,62.75
2023-03-01T18:39:37.835Z,62.97
2023-03-01T18:42:07.038Z,63.77
2023-03-01T18:44:39.419Z,63.92
2023-03-01T18:47:08.459Z,64.06
2023-03-01T18:49:39.143Z,64.21
2023-03-01T18:52:09.564Z,64.05
2023-03-01T18:54:37.708Z,64.26
2023-03-01T18:57:06.511Z,65.44
2023-03-01T18:59:36.672Z,64.62
2023-03-01T19:02:06.478Z,65.34
2023-03-01T19:04:35.802Z,65.61
2023-03-01T19:07:06.800Z,65.54
2023-03-01T19:09:36.496Z,65.92
2023-03-01T19:12:06.639Z,66.28
2023-03-01T19:14:36.151Z,66.43
2023-03-01T19:17:05.385Z,66.45
2023-03-01T19:19:35.961Z,67.26
2023-03-01T19:22:08.039Z,67.52
2023-03-01T19:24:36.649Z,67.69
2023-03-01T19:27:06.444Z,68.94
2023-03-01T19:29:35.690Z,69.22
2023-03-01T19:32:05.622Z,69.09
2023-03-01T19:34:36.001Z,70.52
2023-03-01T19:37:07.351Z,72.19
2023-03-01T19:39:36.672Z,71.48
2023-03-01T19:42:05.805Z,70.89
2023-03-01T19:44:34.668Z,70.57
2023-03-01T19:47:04.821Z,70.22
2023-03-01T19:49:33.771Z,70.96
2023-03-01T19:52:04.193Z,70.20
2023-03-01T19:54:36.587Z,70.46
2023-03-01T19:57:05.626Z,70.92
2023-03-01T19:59:34.760Z,71.98
2023-03-01T20:02:04.352Z,71.30
2023-03-01T20:04:33.219Z,70.60
2023-03-01T20:07:02.620Z,72.15
2023-03-01T20:09:31.812Z,72.23
2023-03-01T20:12:03.090Z,73.60
2023-03-01T20:14:32.689Z,73.42
2023-03-01T20:17:02.006Z,73.32
2023-03-01T20:19:31.041Z,73.58
2023-03-01T20:21:59.668Z,74.01
2023-03-01T20:24:28.682Z,73.84
2023-03-01T20:26:57.624Z,73.82
2023-03-01T20:29:28.297Z,73.57
2023-03-01T20:31:57.331Z,73.76
2023-03-01T20:34:28.653Z,74.86
2023-03-01T20:36:57.972Z,76.00
2023-03-01T20:39:26.840Z,74.75
2023-03-01T20:41:56.182Z,74.62
2023-03-01T20:44:24.636Z,75.71
2023-03-01T20:46:55.088Z,75.94
2023-03-01T20:49:24.825Z,76.08
2023-03-01T20:51:53.843Z,76.57
2023-03-01T20:54:22.961Z,77.70
2023-03-01T20:56:52.040Z,78.47
2023-03-01T20:59:20.560Z,77.13
2023-03-01T21:01:49.320Z,78.33
2023-03-01T21:04:19.485Z,78.69
2023-03-01T21:06:48.042Z,79.48
2023-03-01T21:09:17.399Z,79.46
2023-03-01T21:11:46.362Z,79.71
2023-03-01T21:14:14.884Z,78.89
2023-03-01T21:16:46.141Z,77.93
2023-03-01T21:19:16.297Z,77.64
2023-03-01T21:21:46.749Z,77.00
2023-03-01T21:24:15.296Z,75.70
2023-03-01T21:26:43.849Z,76.67
2023-03-01T21:29:12.757Z,76.81
2023-03-01T21:31:41.573Z,77.10
2023-03-01T21:34:11.205Z,76.73
2023-03-01T21:36:39.845Z,76.02
2023-03-01T21:39:12.172Z,76.93
2023-03-01T21:41:40.982Z,76.70
2023-03-01T21:44:11.390Z,76.38
2023-03-01T21:46:43.039Z,77.05
2023-03-01T21:49:13.476Z,77.44
2023-03-01T21:51:43.120Z,78.49
2023-03-01T21:54:16.591Z,78.53
2023-03-01T21:56:46.476Z,78.41
2023-03-01T21:59:19.088Z,78.60
2023-03-01T22:01:48.807Z,78.92
2023-03-01T22:04:19.465Z,78.94
2023-03-01T22:06:48.738Z,79.58
2023-03-01T22:09:20.844Z,79.66
2023-03-01T22:11:51.458Z,80.24
2023-03-01T22:14:22.466Z,80.59
2023-03-01T22:16:53.720Z,79.71
2023-03-01T22:19:23.793Z,80.43
2023-03-01T22:21:55.031Z,81.51
2023-03-01T22:24:27.296Z,81.35
2023-03-01T22:26:56.554Z,82.15
2023-03-01T22:29:27.091Z,83.05
2023-03-01T22:31:56.859Z,82.61
2023-03-01T22:34:26.439Z,83.16
2023-03-01T22:36:55.837Z,83.87
2023-03-01T22:39:26.578Z,84.20
2023-03-01T22:41:57.481Z,85.22
2023-03-01T22:44:26.670Z,84.39
2023-03-01T22:46:55.444Z,84.77
2023-03-01T22:49:25.746Z,86.35
2023-03-01T22:51:54.360Z,85.43
2023-03-01T22:54:23.877Z,84.56
2023-03-01T22:56:55.704Z,85.78
2023-03-01T22:59:25.037Z,86.27
2023-03-01T23:01:54.987Z,87.37
2023-03-01T23:04:24.890Z,87.63
2023-03-01T23:06:55.671Z,88.57
2023-03-01T23:09:27.051Z,91.24
2023-03-01T23:11:59.274Z,89.75
2023-03-01T23:14:30.878Z,89.08
2023-03-01T23:17:01.035Z,88.44
2023-03-01T23:19:30.360Z,89.16
2023-03-01T23:21:59.448Z,92.20
2023-03-01T23:24:31.465Z,90.95
2023-03-01T23:27:05.465Z,90.59
2023-03-01T23:29:34.357Z,90.95
2023-03-01T23:32:03.623Z,91.05
2023-03-01T23:34:32.676Z,89.91
2023-03-01T23:37:01.528Z,90.17
2023-03-01T23:39:30.492Z,91.29
2023-03-01T23:41:59.567Z,90.82
2023-03-01T23:44:30.465Z,93.67
2023-03-01T23:46:58.991Z,91.28
2023-03-01T23:49:28.447Z,91.23
2023-03-01T23:51:57.261Z,91.97
2023-03-01T23:54:27.929Z,92.08
2023-03-01T23:56:57.086Z,91.98
2023-03-01T23:59:29.129Z,92.39
